Time;durP1;ratioP1;P1;durP2;ratioP2;P2;SDS_P1;SDS_P2;PMS_P1;PMS_P2;Temp;Humidity;BMP_temperature;BMP_pressure;BME280_temperature;BME280_humidity;BME280_pressure;Samples;Min_cycle;Max_cycle;Signal;HPM_P1;HPM_P2
2023/05/08 00:00:57;;;;;;;18.75;12.75;;;11.60;89.20;;;;;;5011163;28;20433;-76
2023/05/08 00:03:22;;;;;;;17.90;12.65;;;11.60;89.60;;;;;;5012931;28;20045;-74
2023/05/08 00:05:48;;;;;;;18.33;12.20;;;11.50;89.50;;;;;;5009634;28;20036;-74
2023/05/08 00:08:14;;;;;;;18.73;12.48;;;11.50;89.60;;;;;;5026711;28;20634;-74
2023/05/08 00:10:39;;;;;;;18.13;12.20;;;11.40;89.60;;;;;;5026478;28;20049;-74
2023/05/08 00:13:05;;;;;;;18.08;12.05;;;11.40;89.70;;;;;;5031034;28;20041;-75
2023/05/08 00:15:31;;;;;;;16.67;11.93;;;11.30;89.90;;;;;;5019908;28;20088;-74
2023/05/08 00:17:57;;;;;;;20.33;13.65;;;11.30;90.00;;;;;;5019023;28;20042;-74
2023/05/08 00:20:22;;;;;;;16.52;11.90;;;11.20;90.00;;;;;;5021988;28;20368;-73
2023/05/08 00:22:48;;;;;;;19.55;12.77;;;11.20;90.10;;;;;;5024571;28;20041;-74
2023/05/08 00:25:14;;;;;;;18.02;11.77;;;11.10;90.20;;;;;;5002896;28;20377;-74
2023/05/08 00:27:39;;;;;;;17.58;12.48;;;11.00;90.20;;;;;;5031400;28;20037;-75
2023/05/08 00:30:06;;;;;;;18.00;13.20;;;11.00;90.40;;;;;;5018068;28;20065;-75
2023/05/08 00:32:32;;;;;;;18.52;12.70;;;10.90;90.50;;;;;;5018423;28;20044;-74
2023/05/08 00:34:57;;;;;;;20.10;12.25;;;10.90;90.60;;;;;;5013308;28;20458;-74
2023/05/08 00:37:23;;;;;;;23.55;14.13;;;10.90;90.70;;;;;;5023814;28;20045;-74
2023/05/08 00:39:48;;;;;;;20.10;12.77;;;10.80;90.80;;;;;;5022558;28;20057;-74
2023/05/08 00:42:14;;;;;;;18.88;12.25;;;10.80;90.90;;;;;;5022574;28;20077;-75
2023/05/08 00:44:40;;;;;;;19.08;12.98;;;10.80;91.00;;;;;;5043173;28;20038;-74
2023/05/08 00:47:07;;;;;;;20.30;12.88;;;10.80;91.00;;;;;;5022509;28;20037;-74
2023/05/08 00:49:34;;;;;;;19.30;12.48;;;10.80;91.10;;;;;;5023705;28;20397;-74
2023/05/08 00:52:02;;;;;;;17.73;12.15;;;10.80;91.10;;;;;;5001322;28;20057;-74
2023/05/08 00:54:28;;;;;;;20.45;13.40;;;10.80;91.20;;;;;;5023209;28;20029;-74
2023/05/08 00:56:54;;;;;;;20.15;13.30;;;10.80;91.20;;;;;;5028878;28;20466;-73
2023/05/08 00:59:21;;;;;;;20.52;12.32;;;10.80;91.30;;;;;;5028762;28;20180;-73
2023/05/08 01:01:48;;;;;;;19.65;12.68;;;10.80;91.30;;;;;;5018209;28;20123;-73
2023/05/08 01:04:14;;;;;;;17.90;12.00;;;10.70;91.40;;;;;;5012272;28;20042;-74
2023/05/08 01:06:39;;;;;;;18.35;12.05;;;10.70;91.40;;;;;;5005273;28;20040;-74
2023/05/08 01:09:06;;;;;;;19.23;12.32;;;10.70;91.50;;;;;;5012983;28;20465;-76
2023/05/08 01:11:40;;;;;;;21.05;13.02;;;10.60;91.60;;;;;;5016407;28;20038;-75
2023/05/08 01:14:20;;;;;;;18.83;12.80;;;10.60;91.80;;;;;;5018762;28;20449;-74
2023/05/08 01:17:08;;;;;;;18.73;11.45;;;10.60;91.90;;;;;;5022132;28;20042;-75
2023/05/08 01:19:57;;;;;;;16.52;12.15;;;10.60;92.10;;;;;;5030128;28;20041;-74
2023/05/08 01:22:50;;;;;;;18.63;12.27;;;10.60;92.50;;;;;;5026829;28;20085;-73
2023/05/08 01:25:44;;;;;;;17.95;12.45;;;10.60;92.20;;;;;;5016830;28;20080;-74
2023/05/08 01:28:29;;;;;;;19.95;12.95;;;10.60;92.20;;;;;;5021735;28;20111;-74
2023/05/08 01:31:16;;;;;;;18.60;12.02;;;10.60;92.50;;;;;;5020536;28;20404;-74
2023/05/08 01:33:47;;;;;;;17.33;11.63;;;10.60;92.20;;;;;;5027410;28;20081;-74
2023/05/08 01:36:37;;;;;;;18.58;12.38;;;10.50;92.30;;;;;;5008091;28;20048;-73
2023/05/08 01:39:40;;;;;;;19.15;13.18;;;10.60;92.60;;;;;;5027797;28;20090;-73
2023/05/08 01:42:23;;;;;;;21.77;12.55;;;10.60;92.60;;;;;;5000200;28;20608;-73
2023/05/08 01:44:58;;;;;;;19.48;12.93;;;10.50;92.50;;;;;;5020559;28;20035;-73
2023/05/08 01:47:32;;;;;;;21.75;12.85;;;10.40;92.50;;;;;;5024819;28;20489;-73
2023/05/08 01:50:18;;;;;;;18.13;12.05;;;10.50;92.50;;;;;;5028778;28;20125;-74
2023/05/08 01:52:59;;;;;;;20.20;13.35;;;10.50;93.00;;;;;;5021396;28;20052;-73
2023/05/08 01:55:35;;;;;;;21.40;13.27;;;10.40;93.00;;;;;;5016775;28;20088;-74
2023/05/08 01:58:06;;;;;;;20.80;13.30;;;10.30;92.90;;;;;;5021771;28;20049;-74
2023/05/08 02:00:32;;;;;;;18.17;12.75;;;10.30;92.80;;;;;;5007749;28;20037;-74
2023/05/08 02:02:59;;;;;;;18.38;12.77;;;10.30;92.80;;;;;;5023270;28;20492;-74
2023/05/08 02:05:26;;;;;;;20.27;12.55;;;10.30;92.90;;;;;;5020520;28;20041;-74
2023/05/08 02:07:54;;;;;;;17.92;12.25;;;10.20;92.90;;;;;;5025407;28;20044;-74
2023/05/08 02:10:22;;;;;;;20.38;12.40;;;10.20;93.00;;;;;;5025553;28;20037;-74
2023/05/08 02:12:48;;;;;;;18.35;11.38;;;10.20;93.10;;;;;;4998038;28;20060;-73
2023/05/08 02:15:16;;;;;;;19.88;13.00;;;10.20;93.10;;;;;;5016915;28;20668;-74
2023/05/08 02:17:45;;;;;;;20.35;13.05;;;10.10;93.20;;;;;;5011228;28;20041;-74
2023/05/08 02:20:13;;;;;;;19.15;12.15;;;10.10;93.30;;;;;;5025266;28;20069;-74
2023/05/08 02:22:45;;;;;;;17.85;11.75;;;10.20;93.20;;;;;;5021543;28;20061;-74
2023/05/08 02:25:13;;;;;;;18.10;12.23;;;10.10;93.30;;;;;;5020636;28;20079;-74
2023/05/08 02:27:42;;;;;;;18.33;12.13;;;10.10;93.20;;;;;;5005824;28;20052;-74
2023/05/08 02:30:14;;;;;;;17.83;12.55;;;10.00;93.30;;;;;;5000604;28;20034;-74
2023/05/08 02:32:43;;;;;;;19.95;12.52;;;10.00;93.30;;;;;;5045797;28;20045;-74
2023/05/08 02:35:13;;;;;;;18.63;12.10;;;10.00;93.40;;;;;;5010483;28;20059;-73
2023/05/08 02:37:43;;;;;;;17.13;11.82;;;9.90;93.30;;;;;;5016801;28;20324;-73
2023/05/08 02:40:10;;;;;;;18.77;12.25;;;9.90;93.40;;;;;;5026743;28;20111;-73
2023/05/08 02:42:36;;;;;;;18.17;12.73;;;9.90;93.40;;;;;;5039903;28;20052;-74
2023/05/08 02:45:03;;;;;;;19.88;12.65;;;9.90;93.50;;;;;;5021016;28;20061;-74
2023/05/08 02:48:00;;;;;;;18.75;11.93;;;9.80;93.50;;;;;;5008183;28;20469;-74
2023/05/08 02:50:39;;;;;;;18.60;12.07;;;9.80;93.80;;;;;;5024004;28;20038;-73
2023/05/08 02:53:09;;;;;;;20.60;12.25;;;9.80;93.90;;;;;;5022965;28;20041;-73
2023/05/08 02:55:52;;;;;;;20.25;11.80;;;9.80;93.80;;;;;;5006424;28;20116;-74
2023/05/08 02:58:21;;;;;;;20.02;12.93;;;9.70;94.00;;;;;;5027675;28;20493;-74
2023/05/08 03:00:59;;;;;;;15.25;11.13;;;9.70;93.90;;;;;;5003088;28;20044;-74
2023/05/08 03:03:42;;;;;;;18.65;11.77;;;9.70;94.10;;;;;;5008033;28;20135;-74
2023/05/08 03:06:12;;;;;;;18.30;11.75;;;9.70;94.30;;;;;;5026311;28;20033;-74
2023/05/08 03:08:40;;;;;;;18.88;12.30;;;9.60;94.10;;;;;;5029830;28;20390;-74
2023/05/08 03:11:20;;;;;;;17.70;11.48;;;9.60;94.20;;;;;;5011034;28;21092;-74
2023/05/08 03:13:48;;;;;;;18.60;12.27;;;9.50;94.40;;;;;;5024028;28;20045;-75
2023/05/08 03:16:19;;;;;;;17.20;11.63;;;9.50;94.40;;;;;;5025685;28;20315;-73
2023/05/08 03:19:06;;;;;;;15.95;11.07;;;9.50;94.50;;;;;;5014402;28;20034;-74
2023/05/08 03:21:32;;;;;;;18.77;12.00;;;9.50;94.70;;;;;;5021963;28;20117;-74
2023/05/08 03:24:01;;;;;;;18.00;11.20;;;9.50;94.60;;;;;;5018200;28;20046;-74
2023/05/08 03:26:27;;;;;;;18.98;12.02;;;9.40;94.70;;;;;;5022282;28;20048;-74
2023/05/08 03:28:55;;;;;;;19.60;12.45;;;9.50;94.80;;;;;;5025978;28;20038;-74
2023/05/08 03:31:21;;;;;;;17.52;11.50;;;9.50;94.80;;;;;;5022050;28;20041;-74
2023/05/08 03:33:51;;;;;;;17.77;12.07;;;9.40;94.80;;;;;;5018086;28;20484;-74
2023/05/08 03:36:17;;;;;;;20.52;12.68;;;9.40;94.90;;;;;;5011938;28;20623;-74
2023/05/08 03:38:42;;;;;;;17.73;11.10;;;9.40;95.00;;;;;;5010116;28;20052;-74
2023/05/08 03:41:08;;;;;;;18.67;11.63;;;9.40;95.00;;;;;;5021232;28;20486;-74
2023/05/08 03:43:36;;;;;;;17.63;11.43;;;9.30;95.00;;;;;;5020989;28;20041;-74
2023/05/08 03:46:04;;;;;;;19.83;12.40;;;9.30;95.10;;;;;;5021569;28;20045;-74
2023/05/08 03:48:32;;;;;;;20.58;12.85;;;9.30;95.20;;;;;;5019803;28;20029;-74
2023/05/08 03:51:00;;;;;;;19.67;12.13;;;9.30;95.40;;;;;;5019809;28;20493;-74
2023/05/08 03:53:27;;;;;;;18.65;11.35;;;9.20;95.50;;;;;;5024008;28;20120;-74
2023/05/08 03:55:53;;;;;;;17.80;12.32;;;9.20;95.60;;;;;;5021519;28;20041;-74
2023/05/08 03:58:30;;;;;;;21.13;12.95;;;9.10;95.60;;;;;;5006192;28;20053;-74
2023/05/08 04:01:12;;;;;;;20.05;12.40;;;9.00;95.80;;;;;;5017453;28;20037;-74
2023/05/08 04:04:03;;;;;;;20.30;11.90;;;9.00;96.00;;;;;;5010192;28;20084;-74
2023/05/08 04:06:48;;;;;;;19.98;12.77;;;8.90;96.30;;;;;;5016417;28;20045;-74
2023/05/08 04:09:17;;;;;;;18.83;11.77;;;8.90;96.50;;;;;;5013528;28;20049;-74
2023/05/08 04:12:12;;;;;;;19.98;11.27;;;8.90;96.40;;;;;;5025967;28;20034;-74
2023/05/08 04:14:46;;;;;;;18.67;11.77;;;8.80;96.50;;;;;;5026869;28;20042;-73
2023/05/08 04:17:16;;;;;;;17.55;11.90;;;8.90;96.70;;;;;;5023614;28;20469;-74
2023/05/08 04:19:45;;;;;;;19.77;12.02;;;8.90;96.50;;;;;;4999415;28;20088;-73
2023/05/08 04:22:12;;;;;;;17.35;11.68;;;8.90;96.70;;;;;;5027652;28;20459;-73
2023/05/08 04:24:42;;;;;;;19.83;11.77;;;8.90;96.70;;;;;;5023822;28;20477;-74
2023/05/08 04:27:09;;;;;;;19.23;11.87;;;8.80;96.80;;;;;;5020253;28;20029;-74
2023/05/08 04:29:35;;;;;;;18.65;12.27;;;8.80;96.80;;;;;;5021831;28;20065;-74
2023/05/08 04:32:04;;;;;;;18.67;12.20;;;8.80;96.90;;;;;;5028742;28;20421;-73
2023/05/08 04:34:30;;;;;;;18.33;11.60;;;8.80;97.10;;;;;;5013688;28;20073;-73
2023/05/08 04:36:56;;;;;;;18.83;11.82;;;8.80;97.40;;;;;;5006498;28;20068;-73
2023/05/08 04:39:21;;;;;;;19.17;11.93;;;8.80;97.30;;;;;;5009557;28;20038;-74
2023/05/08 04:41:50;;;;;;;17.73;11.90;;;8.90;97.40;;;;;;5036633;28;20052;-73
2023/05/08 04:44:15;;;;;;;18.60;11.95;;;8.90;97.30;;;;;;5027364;28;20064;-73
2023/05/08 04:46:41;;;;;;;18.65;11.68;;;9.00;97.50;;;;;;5031795;28;20041;-73
2023/05/08 04:49:07;;;;;;;18.58;12.20;;;9.00;97.70;;;;;;5013566;28;20124;-72
2023/05/08 04:51:32;;;;;;;18.85;12.30;;;9.10;97.60;;;;;;5018903;28;20041;-73
2023/05/08 04:53:58;;;;;;;18.88;12.15;;;9.10;97.60;;;;;;4996915;28;20109;-73
2023/05/08 04:56:23;;;;;;;21.30;12.32;;;9.20;97.60;;;;;;5026737;28;20057;-73
2023/05/08 04:58:50;;;;;;;17.90;12.50;;;9.30;97.60;;;;;;5001714;28;20066;-74
2023/05/08 05:01:15;;;;;;;18.65;13.20;;;9.30;97.60;;;;;;5018901;28;20042;-73
2023/05/08 05:03:41;;;;;;;17.13;12.02;;;9.30;97.50;;;;;;5019692;28;20059;-72
2023/05/08 05:06:07;;;;;;;17.10;11.63;;;9.40;97.50;;;;;;5018750;28;20088;-73
2023/05/08 05:08:32;;;;;;;19.42;11.35;;;9.40;97.50;;;;;;5019258;28;20032;-72
2023/05/08 05:10:58;;;;;;;15.57;10.63;;;9.50;97.40;;;;;;5016397;28;20093;-72
2023/05/08 05:13:23;;;;;;;17.95;12.10;;;9.60;97.40;;;;;;5019678;28;20046;-73
2023/05/08 05:15:53;;;;;;;18.15;11.30;;;9.80;97.50;;;;;;5027128;28;20587;-73
2023/05/08 05:18:19;;;;;;;16.70;11.60;;;9.80;97.60;;;;;;5019289;28;20095;-72
2023/05/08 05:20:45;;;;;;;18.00;11.38;;;10.00;97.70;;;;;;5020676;28;20072;-72
2023/05/08 05:23:11;;;;;;;17.10;11.45;;;10.10;97.70;;;;;;5022770;28;20069;-72
2023/05/08 05:25:36;;;;;;;17.15;11.93;;;10.20;97.80;;;;;;5024684;28;20531;-73
2023/05/08 05:28:02;;;;;;;16.88;11.65;;;10.30;97.80;;;;;;5011940;28;20041;-73
2023/05/08 05:30:28;;;;;;;16.55;11.77;;;10.40;97.80;;;;;;5011944;28;20466;-72
2023/05/08 05:32:53;;;;;;;15.10;11.05;;;10.50;97.80;;;;;;5001248;28;20041;-73
2023/05/08 05:35:19;;;;;;;15.00;11.23;;;10.60;97.40;;;;;;5027417;28;20090;-72
2023/05/08 05:37:44;;;;;;;14.90;10.93;;;10.70;96.90;;;;;;5023557;28;20173;-73
2023/05/08 05:40:12;;;;;;;14.77;10.57;;;10.80;96.50;;;;;;5015623;28;20053;-73
2023/05/08 05:42:37;;;;;;;16.35;11.18;;;10.90;96.10;;;;;;5018989;28;20049;-73
2023/05/08 05:45:03;;;;;;;13.85;9.85;;;11.00;96.00;;;;;;5023730;28;20470;-72
2023/05/08 05:47:29;;;;;;;16.23;11.45;;;11.10;95.60;;;;;;5009290;28;20411;-73
2023/05/08 05:49:56;;;;;;;14.63;10.48;;;11.20;95.20;;;;;;5007063;28;20124;-73
2023/05/08 05:52:22;;;;;;;15.30;11.77;;;11.30;95.00;;;;;;5024512;28;20087;-73
2023/05/08 05:54:47;;;;;;;15.50;10.85;;;11.50;94.80;;;;;;5023493;28;20030;-74
2023/05/08 05:57:13;;;;;;;13.48;10.65;;;11.50;94.60;;;;;;5020614;28;20030;-74
2023/05/08 05:59:39;;;;;;;14.27;10.32;;;11.70;94.50;;;;;;5008630;28;20052;-73
2023/05/08 06:02:09;;;;;;;15.20;10.40;;;11.80;94.70;;;;;;5006826;28;20429;-73
2023/05/08 06:04:34;;;;;;;14.57;10.68;;;11.80;94.10;;;;;;5002255;28;20041;-73
2023/05/08 06:07:00;;;;;;;18.10;10.27;;;11.90;93.90;;;;;;5025197;28;20046;-73
2023/05/08 06:09:25;;;;;;;12.45;10.18;;;11.90;93.50;;;;;;5008276;28;20038;-73
2023/05/08 06:11:51;;;;;;;13.95;10.35;;;11.90;93.10;;;;;;5010257;28;20052;-73
2023/05/08 06:14:17;;;;;;;12.52;9.55;;;11.90;93.00;;;;;;5009239;28;20517;-73
2023/05/08 06:16:43;;;;;;;12.27;9.20;;;11.90;92.70;;;;;;5027224;28;20456;-74
2023/05/08 06:19:09;;;;;;;11.80;8.98;;;12.00;91.90;;;;;;5023631;28;20084;-71
2023/05/08 06:21:36;;;;;;;12.98;9.60;;;12.10;91.80;;;;;;5003475;28;20073;-74
2023/05/08 06:24:02;;;;;;;13.13;10.02;;;12.10;91.80;;;;;;5026105;28;20045;-73
2023/05/08 06:26:27;;;;;;;13.65;9.80;;;12.10;91.60;;;;;;5015337;28;20434;-75
2023/05/08 06:28:53;;;;;;;13.15;9.98;;;12.10;91.40;;;;;;5022531;28;20561;-74
2023/05/08 06:31:18;;;;;;;13.02;10.52;;;12.10;91.30;;;;;;5024748;28;20034;-73
2023/05/08 06:33:44;;;;;;;13.55;9.93;;;12.10;90.90;;;;;;5003544;28;20041;-74
2023/05/08 06:36:09;;;;;;;12.93;9.88;;;12.10;90.90;;;;;;5006433;28;20055;-73
2023/05/08 06:38:35;;;;;;;15.63;11.05;;;12.10;91.00;;;;;;5025339;28;20225;-73
2023/05/08 06:41:01;;;;;;;13.90;10.68;;;12.10;91.00;;;;;;5008295;28;20061;-74
2023/05/08 06:43:26;;;;;;;15.23;10.73;;;12.10;91.00;;;;;;5005088;28;20034;-74
2023/05/08 06:45:52;;;;;;;15.93;10.98;;;12.20;91.10;;;;;;5020413;28;20034;-73
2023/05/08 06:48:17;;;;;;;15.57;10.18;;;12.10;90.90;;;;;;5005321;28;20046;-73
2023/05/08 06:50:43;;;;;;;14.00;10.25;;;12.10;90.70;;;;;;5007909;28;20445;-73
2023/05/08 06:53:09;;;;;;;16.52;10.65;;;12.20;90.70;;;;;;5022189;28;20107;-75
2023/05/08 06:55:37;;;;;;;16.23;10.85;;;12.20;90.80;;;;;;5000626;28;20037;-73
2023/05/08 06:58:02;;;;;;;13.27;9.75;;;12.30;91.00;;;;;;5020147;28;20041;-73
2023/05/08 07:00:28;;;;;;;16.05;10.20;;;12.40;90.50;;;;;;5016907;28;20038;-74
2023/05/08 07:02:54;;;;;;;12.55;9.55;;;12.40;90.20;;;;;;5009993;28;20045;-74
2023/05/08 07:05:19;;;;;;;14.23;10.45;;;12.50;90.10;;;;;;5019468;28;20041;-73
2023/05/08 07:07:45;;;;;;;12.73;10.73;;;12.50;89.90;;;;;;5004105;28;20867;-73
2023/05/08 07:10:11;;;;;;;13.23;10.55;;;12.70;89.70;;;;;;5006876;28;20038;-73
2023/05/08 07:12:36;;;;;;;15.50;10.60;;;12.70;89.00;;;;;;5000519;28;20477;-74
2023/05/08 07:15:03;;;;;;;14.88;10.25;;;12.80;88.70;;;;;;5014147;28;20151;-72
2023/05/08 07:17:31;;;;;;;14.98;11.40;;;12.80;88.70;;;;;;5018946;28;20588;-73
2023/05/08 07:19:57;;;;;;;15.50;11.43;;;12.90;88.80;;;;;;5013366;28;20038;-74
2023/05/08 07:22:22;;;;;;;13.02;9.85;;;13.00;88.60;;;;;;5014103;28;20033;-73
2023/05/08 07:24:48;;;;;;;14.90;11.02;;;13.20;88.60;;;;;;5000367;28;20036;-72
2023/05/08 07:27:13;;;;;;;13.65;10.60;;;13.50;88.20;;;;;;5016102;28;20164;-73
2023/05/08 07:29:40;;;;;;;16.05;11.23;;;13.70;86.70;;;;;;4995983;28;20108;-73
2023/05/08 07:32:08;;;;;;;14.70;11.23;;;13.90;87.00;;;;;;5020558;28;20162;-72
2023/05/08 07:34:34;;;;;;;14.18;10.45;;;14.00;85.50;;;;;;4996158;28;20382;-74
2023/05/08 07:37:00;;;;;;;14.90;11.07;;;14.20;85.60;;;;;;5008005;28;20084;-73
2023/05/08 07:39:25;;;;;;;15.75;11.32;;;14.30;85.50;;;;;;5010719;28;20042;-74
2023/05/08 07:41:51;;;;;;;17.45;11.90;;;14.40;85.20;;;;;;5025118;28;20030;-73
2023/05/08 07:44:16;;;;;;;13.95;10.80;;;14.40;84.70;;;;;;5015573;28;20061;-73
2023/05/08 07:46:42;;;;;;;14.27;10.95;;;14.50;84.40;;;;;;5008844;28;20044;-73
2023/05/08 07:49:07;;;;;;;13.88;10.95;;;14.50;83.30;;;;;;5016117;28;20097;-73
2023/05/08 07:51:33;;;;;;;15.35;10.77;;;14.50;83.50;;;;;;5024675;28;20042;-73
2023/05/08 07:53:58;;;;;;;15.77;11.60;;;14.60;83.50;;;;;;5013660;28;20073;-73
2023/05/08 07:56:24;;;;;;;15.02;11.02;;;14.70;83.70;;;;;;5003375;28;20041;-73
2023/05/08 07:58:50;;;;;;;15.35;10.57;;;14.80;83.50;;;;;;5000308;28;20442;-72
2023/05/08 08:01:16;;;;;;;14.60;11.68;;;15.10;83.10;;;;;;5018457;28;21230;-72
2023/05/08 08:03:43;;;;;;;15.45;11.30;;;15.60;83.00;;;;;;5005931;28;20562;-72
2023/05/08 08:06:09;;;;;;;13.65;10.82;;;16.50;83.00;;;;;;5023062;28;20071;-72
2023/05/08 08:08:35;;;;;;;14.52;11.48;;;17.20;82.00;;;;;;5018604;28;20575;-73
2023/05/08 08:11:00;;;;;;;15.05;12.07;;;17.50;80.60;;;;;;5017024;28;20505;-73
2023/05/08 08:13:26;;;;;;;12.63;10.65;;;17.80;79.80;;;;;;5022685;28;20059;-73
2023/05/08 08:15:51;;;;;;;15.68;11.23;;;17.80;78.40;;;;;;5023236;28;20047;-72
2023/05/08 08:18:17;;;;;;;13.05;10.65;;;17.90;76.10;;;;;;5023586;28;20030;-73
2023/05/08 08:20:43;;;;;;;12.45;9.95;;;18.10;75.90;;;;;;5018539;28;20393;-72
2023/05/08 08:23:08;;;;;;;11.88;10.40;;;18.10;74.40;;;;;;5027169;28;20104;-75
2023/05/08 08:25:34;;;;;;;14.05;11.30;;;18.40;74.60;;;;;;5000324;28;20034;-73
2023/05/08 08:27:59;;;;;;;11.38;10.20;;;18.60;71.80;;;;;;5019887;28;20038;-77
2023/05/08 08:30:25;;;;;;;12.35;10.82;;;19.10;73.10;;;;;;5022992;28;20469;-75
2023/05/08 08:32:50;;;;;;;11.35;9.98;;;19.40;71.10;;;;;;5025660;28;20065;-74
2023/05/08 08:35:16;;;;;;;11.45;10.10;;;19.20;71.10;;;;;;5002622;28;20099;-72
2023/05/08 08:37:42;;;;;;;13.18;10.30;;;19.60;69.70;;;;;;5033040;28;20045;-73
2023/05/08 08:40:08;;;;;;;11.00;9.90;;;20.10;68.50;;;;;;5030974;28;20565;-74
2023/05/08 08:42:34;;;;;;;12.57;10.35;;;20.40;68.00;;;;;;5021076;28;20045;-73
2023/05/08 08:45:00;;;;;;;12.20;10.93;;;20.80;66.50;;;;;;5022137;28;20396;-74
2023/05/08 08:47:40;;;;;;;11.75;10.52;;;21.00;65.10;;;;;;5020131;28;20099;-75
2023/05/08 08:50:07;;;;;;;11.65;10.13;;;21.10;61.10;;;;;;5021292;28;20037;-73
2023/05/08 08:52:35;;;;;;;12.10;10.15;;;21.50;61.90;;;;;;5030921;28;20045;-72
2023/05/08 08:55:02;;;;;;;11.80;10.52;;;21.80;61.30;;;;;;5030141;28;20064;-73
2023/05/08 08:57:32;;;;;;;12.73;10.75;;;22.00;60.40;;;;;;5022506;28;20132;-75
2023/05/08 09:00:03;;;;;;;12.43;11.05;;;22.10;57.70;;;;;;5019994;28;20065;-74
2023/05/08 09:02:30;;;;;;;11.77;10.68;;;22.30;58.60;;;;;;5024753;28;20048;-75
2023/05/08 09:04:57;;;;;;;12.10;10.82;;;22.00;58.20;;;;;;5023548;28;20433;-73
2023/05/08 09:07:23;;;;;;;12.82;10.88;;;22.70;56.90;;;;;;5045776;28;20084;-73
2023/05/08 09:09:50;;;;;;;11.77;10.48;;;22.60;56.50;;;;;;5011807;28;20034;-73
2023/05/08 09:12:16;;;;;;;12.52;10.40;;;23.00;56.20;;;;;;4999223;28;20088;-70
2023/05/08 09:14:42;;;;;;;12.05;10.82;;;23.30;55.20;;;;;;5006154;28;20038;-71
2023/05/08 09:17:08;;;;;;;12.10;10.80;;;23.50;54.60;;;;;;5009006;28;20386;-70
2023/05/08 09:19:34;;;;;;;13.05;11.68;;;23.50;54.80;;;;;;5011054;28;20053;-71
2023/05/08 09:22:00;;;;;;;13.55;10.88;;;23.70;52.80;;;;;;5022119;28;20060;-72
2023/05/08 09:24:45;;;;;;;15.68;12.20;;;23.60;52.80;;;;;;5018738;28;20389;-70
2023/05/08 09:27:21;;;;;;;12.85;11.38;;;23.50;52.50;;;;;;5010372;28;20034;-70
2023/05/08 09:30:13;;;;;;;13.00;11.60;;;23.50;52.30;;;;;;5013546;28;20048;-71
2023/05/08 09:32:41;;;;;;;13.55;12.15;;;23.00;51.40;;;;;;4997910;28;20046;-70
2023/05/08 09:35:08;;;;;;;12.57;11.35;;;22.80;53.60;;;;;;5034327;28;20099;-74
2023/05/08 09:37:41;;;;;;;13.30;11.85;;;22.50;54.50;;;;;;5012288;28;20461;-69
2023/05/08 09:40:20;;;;;;;13.07;11.77;;;22.40;54.20;;;;;;4999332;28;20088;-73
2023/05/08 09:42:47;;;;;;;13.98;12.25;;;22.20;53.50;;;;;;5025810;28;20046;-70
2023/05/08 09:45:30;;;;;;;13.15;11.80;;;21.90;55.20;;;;;;5015574;28;20041;-71
2023/05/08 09:47:56;;;;;;;13.88;12.02;;;22.00;54.40;;;;;;5018031;28;20397;-71
2023/05/08 09:50:23;;;;;;;12.70;11.02;;;22.10;54.80;;;;;;5030566;28;20045;-71
2023/05/08 09:52:49;;;;;;;13.68;11.82;;;22.40;54.30;;;;;;5000701;28;20033;-73
2023/05/08 09:55:15;;;;;;;12.82;11.40;;;22.60;54.10;;;;;;5015477;28;20069;-72
2023/05/08 09:57:51;;;;;;;14.68;12.38;;;22.60;53.40;;;;;;5014782;28;20106;-72
2023/05/08 10:00:17;;;;;;;14.38;12.57;;;22.50;51.80;;;;;;5013999;28;20377;-72
2023/05/08 10:02:57;;;;;;;14.07;12.43;;;22.40;53.30;;;;;;5016248;28;20053;-72
2023/05/08 10:05:31;;;;;;;14.43;12.75;;;22.60;52.00;;;;;;5011031;28;20041;-73
2023/05/08 10:08:20;;;;;;;13.27;11.25;;;23.20;51.00;;;;;;5023133;28;20117;-72
2023/05/08 10:10:46;;;;;;;14.68;12.45;;;23.70;50.60;;;;;;5002014;28;20061;-71
2023/05/08 10:13:11;;;;;;;14.52;12.75;;;24.00;50.10;;;;;;5013564;28;20184;-71
2023/05/08 10:15:40;;;;;;;16.17;13.02;;;24.00;50.00;;;;;;5014913;28;20553;-71
2023/05/08 10:18:13;;;;;;;13.48;12.07;;;23.70;50.20;;;;;;5024930;28;20271;-71
2023/05/08 10:20:43;;;;;;;16.08;13.10;;;23.60;50.60;;;;;;4993583;28;20041;-71
2023/05/08 10:23:13;;;;;;;14.77;13.07;;;23.30;51.20;;;;;;5008524;28;20448;-70
2023/05/08 10:25:47;;;;;;;13.70;12.27;;;23.50;51.30;;;;;;5008494;28;20057;-72
2023/05/08 10:28:22;;;;;;;15.88;12.88;;;24.00;50.90;;;;;;5005304;28;20033;-72
2023/05/08 10:30:49;;;;;;;15.02;13.27;;;24.30;50.00;;;;;;4995978;28;20049;-71
2023/05/08 10:33:19;;;;;;;16.73;13.88;;;24.20;50.60;;;;;;5015082;28;20045;-72
2023/05/08 10:35:45;;;;;;;15.80;13.48;;;23.70;49.90;;;;;;5021440;28;20091;-73
2023/05/08 10:38:13;;;;;;;14.73;12.18;;;23.20;51.70;;;;;;5027689;28;20049;-70
2023/05/08 10:40:38;;;;;;;13.90;12.30;;;22.90;52.40;;;;;;5030312;28;20481;-71
2023/05/08 10:43:06;;;;;;;14.20;12.60;;;22.60;53.00;;;;;;5012860;28;20049;-70
2023/05/08 10:45:32;;;;;;;13.85;12.07;;;22.40;54.10;;;;;;5011237;28;20034;-71
2023/05/08 10:48:28;;;;;;;13.43;11.85;;;22.30;55.00;;;;;;5020267;28;20502;-72
2023/05/08 10:51:20;;;;;;;17.58;13.82;;;22.20;54.70;;;;;;5018180;28;20489;-71
2023/05/08 10:54:11;;;;;;;16.70;14.18;;;22.00;54.20;;;;;;5019262;28;20089;-74
2023/05/08 10:56:38;;;;;;;18.58;13.48;;;21.80;55.40;;;;;;5024690;28;20037;-71
2023/05/08 10:59:05;;;;;;;15.65;13.63;;;21.40;55.90;;;;;;5025563;28;20052;-72
2023/05/08 11:01:31;;;;;;;15.80;13.57;;;21.40;55.80;;;;;;5025600;28;20041;-72
2023/05/08 11:03:56;;;;;;;15.07;13.48;;;21.10;57.00;;;;;;5035066;28;20561;-71
2023/05/08 11:06:42;;;;;;;16.23;12.93;;;21.20;56.30;;;;;;5027143;28;20531;-72
2023/05/08 11:09:07;;;;;;;15.38;12.52;;;21.20;57.20;;;;;;5006514;28;20121;-73
2023/05/08 11:11:38;;;;;;;16.88;12.82;;;21.20;57.00;;;;;;5028462;28;20128;-72
2023/05/08 11:14:06;;;;;;;;;;;21.30;57.20;;;;;;5024643;28;20386;-72
2023/05/08 11:17:02;;;;;;;14.82;10.93;;;21.30;57.20;;;;;;4999714;28;19917;-73
2023/05/08 11:19:28;;;;;;;18.05;12.80;;;21.30;56.90;;;;;;4986650;28;20053;-72
2023/05/08 11:22:20;;;;;;;14.80;11.32;;;21.30;56.60;;;;;;5023626;28;20444;-72
2023/05/08 11:24:52;;;;;;;15.10;12.30;;;21.40;57.00;;;;;;5000585;28;20040;-70
2023/05/08 11:27:33;;;;;;;13.35;10.63;;;21.60;56.40;;;;;;5014254;28;20112;-72
2023/05/08 11:30:19;;;;;;;14.23;12.27;;;21.70;55.80;;;;;;5018463;28;20041;-72
2023/05/08 11:33:01;;;;;;;14.10;11.75;;;21.50;56.10;;;;;;5032709;28;20506;-72
2023/05/08 11:35:39;;;;;;;16.35;11.57;;;21.70;56.40;;;;;;5019862;28;20041;-72
2023/05/08 11:38:30;;;;;;;16.65;12.13;;;21.80;57.00;;;;;;5029723;28;20046;-73
2023/05/08 11:41:03;;;;;;;13.45;11.65;;;21.90;55.30;;;;;;5006209;28;20054;-72
2023/05/08 11:43:31;;;;;;;16.00;11.85;;;21.90;55.90;;;;;;5024227;28;20056;-73
2023/05/08 11:46:12;;;;;;;13.73;11.25;;;22.00;55.80;;;;;;5002510;28;20037;-73
2023/05/08 11:48:38;;;;;;;12.90;11.35;;;22.10;55.70;;;;;;4995296;28;20045;-73
2023/05/08 11:51:04;;;;;;;14.10;12.48;;;22.00;55.50;;;;;;5024767;28;20049;-73
2023/05/08 11:53:31;;;;;;;11.80;9.98;;;22.20;55.10;;;;;;5016700;28;20401;-73
2023/05/08 11:55:58;;;;;;;14.82;11.85;;;22.30;55.50;;;;;;5026932;28;20047;-74
2023/05/08 11:58:24;;;;;;;13.27;10.63;;;22.40;55.30;;;;;;5025614;28;20042;-74
2023/05/08 12:00:50;;;;;;;13.48;10.57;;;22.30;55.50;;;;;;5023090;28;20064;-74
2023/05/08 12:03:21;;;;;;;12.10;10.05;;;22.50;55.30;;;;;;5024742;28;20078;-73
2023/05/08 12:05:48;;;;;;;12.43;10.15;;;22.50;55.30;;;;;;5022487;28;20108;-73
2023/05/08 12:08:15;;;;;;;14.02;10.48;;;22.60;54.90;;;;;;5027237;28;20041;-73
2023/05/08 12:10:55;;;;;;;13.18;10.68;;;22.80;54.40;;;;;;5016999;28;20413;-73
2023/05/08 12:13:26;;;;;;;12.68;10.68;;;23.00;54.00;;;;;;5020083;28;20056;-71
2023/05/08 12:15:57;;;;;;;12.63;10.18;;;22.90;52.70;;;;;;5022488;28;20386;-73
2023/05/08 12:18:25;;;;;;;11.90;9.35;;;22.90;53.30;;;;;;4996042;28;20091;-74
2023/05/08 12:20:57;;;;;;;10.60;8.07;;;23.10;54.20;;;;;;5013352;28;20045;-74
2023/05/08 12:23:24;;;;;;;10.38;8.00;;;23.50;53.40;;;;;;5003710;28;20726;-75
2023/05/08 12:25:53;;;;;;;10.13;8.00;;;23.70;51.60;;;;;;5022614;28;20068;-75
2023/05/08 12:28:19;;;;;;;9.43;5.90;;;23.90;50.70;;;;;;5010999;28;20038;-74
2023/05/08 12:30:45;;;;;;;8.85;7.05;;;24.20;51.60;;;;;;5011661;28;20041;-75
2023/05/08 12:33:11;;;;;;;9.82;7.18;;;24.20;51.30;;;;;;5025577;28;20478;-73
2023/05/08 12:35:38;;;;;;;10.30;7.43;;;24.40;50.70;;;;;;5002932;28;20034;-75
2023/05/08 12:38:06;;;;;;;11.60;8.90;;;24.80;49.50;;;;;;5026233;28;20121;-73
2023/05/08 12:40:34;;;;;;;7.20;6.07;;;24.60;48.90;;;;;;5001960;28;20104;-75
2023/05/08 12:43:01;;;;;;;7.43;6.03;;;24.80;49.10;;;;;;5022600;28;20136;-75